Time;durP1;ratioP1;P1;durP2;ratioP2;P2;SDS_P1;SDS_P2;PMS_P1;PMS_P2;Temp;Humidity;BMP_temperature;BMP_pressure;BME280_temperature;BME280_humidity;BME280_pressure;Samples;Min_cycle;Max_cycle;Signal;HPM_P1;HPM_P2
2021/01/03 00:00:57;;;;;;;6.93;4.33;;;5.60;87.40;;;;;;5008931;28;20272;-87
2021/01/03 00:03:23;;;;;;;7.57;4.60;;;5.60;87.60;;;;;;5011773;28;20189;-87
2021/01/03 00:05:49;;;;;;;7.80;5.50;;;5.60;87.60;;;;;;4998427;28;20987;-88
2021/01/03 00:08:14;;;;;;;7.23;4.30;;;5.60;87.80;;;;;;5013904;28;20177;-88
2021/01/03 00:10:40;;;;;;;5.77;4.70;;;5.70;88.20;;;;;;5027879;28;20205;-87
2021/01/03 00:13:06;;;;;;;5.67;4.47;;;5.60;88.50;;;;;;5028470;28;20236;-87
2021/01/03 00:15:32;;;;;;;6.23;5.20;;;5.70;88.50;;;;;;5011635;28;20224;-88
2021/01/03 00:17:57;;;;;;;11.20;4.70;;;5.70;88.30;;;;;;4996607;28;20216;-87
2021/01/03 00:20:27;;;;;;;4.63;4.20;;;5.70;88.20;;;;;;4992937;28;20190;-88
2021/01/03 00:22:54;;;;;;;6.03;5.33;;;5.70;88.50;;;;;;4993994;28;20178;-88
2021/01/03 00:25:22;;;;;;;8.63;5.73;;;5.70;88.70;;;;;;4994278;28;20184;-87
2021/01/03 00:27:49;;;;;;;9.67;4.60;;;5.80;88.50;;;;;;5009700;28;20216;-87
2021/01/03 00:30:23;;;;;;;6.40;4.67;;;5.80;89.00;;;;;;5010501;28;20312;-87
2021/01/03 00:32:50;;;;;;;6.30;4.83;;;5.80;89.20;;;;;;4991737;28;20564;-87
2021/01/03 00:35:34;;;;;;;5.90;5.30;;;5.80;88.80;;;;;;4988985;28;20864;-88
2021/01/03 00:38:03;;;;;;;7.93;5.37;;;5.80;88.40;;;;;;4988594;28;20196;-87
2021/01/03 00:40:29;;;;;;;5.07;4.57;;;5.80;88.60;;;;;;5005111;28;20181;-88
2021/01/03 00:42:56;;;;;;;12.27;6.17;;;5.90;88.60;;;;;;5009402;28;20173;-87
2021/01/03 00:45:22;;;;;;;7.33;4.77;;;5.90;88.70;;;;;;4994825;28;20231;-88
2021/01/03 00:47:47;;;;;;;10.23;5.37;;;5.90;89.00;;;;;;5006244;28;20698;-88
2021/01/03 00:50:14;;;;;;;6.27;5.33;;;5.90;89.00;;;;;;5006326;28;20189;-87
2021/01/03 00:52:40;;;;;;;8.13;5.47;;;6.00;88.70;;;;;;4989420;28;20192;-87
2021/01/03 00:55:07;;;;;;;7.43;4.83;;;6.00;89.20;;;;;;5005673;28;20886;-84
2021/01/03 00:57:33;;;;;;;12.73;6.43;;;6.00;89.40;;;;;;4989707;28;20208;-84
2021/01/03 00:59:59;;;;;;;5.43;4.90;;;6.00;89.00;;;;;;5005449;28;20189;-85
2021/01/03 01:02:25;;;;;;;10.57;5.50;;;6.10;88.90;;;;;;4989514;28;20213;-85
2021/01/03 01:04:50;;;;;;;6.03;5.00;;;6.10;88.80;;;;;;5004609;28;20193;-85
2021/01/03 01:07:16;;;;;;;8.70;5.87;;;6.20;88.80;;;;;;4999066;28;21023;-85
2021/01/03 01:09:42;;;;;;;9.40;6.10;;;6.20;88.60;;;;;;5004992;28;20629;-85
2021/01/03 01:12:07;;;;;;;8.20;5.47;;;6.30;88.20;;;;;;5005402;28;20818;-85
2021/01/03 01:14:33;;;;;;;12.93;5.87;;;6.30;88.40;;;;;;5010154;28;20273;-85
2021/01/03 01:16:59;;;;;;;8.57;6.23;;;6.30;88.90;;;;;;5007926;28;20185;-86
2021/01/03 01:19:25;;;;;;;7.03;5.30;;;6.30;89.20;;;;;;5008829;28;20181;-85
2021/01/03 01:21:50;;;;;;;9.73;6.13;;;6.30;88.80;;;;;;5008292;28;20224;-86
2021/01/03 01:24:16;;;;;;;7.30;5.27;;;6.30;89.00;;;;;;5014629;28;20625;-85
2021/01/03 01:26:42;;;;;;;9.30;6.40;;;6.40;88.60;;;;;;5029006;28;20227;-85
2021/01/03 01:29:08;;;;;;;7.63;6.00;;;6.40;89.50;;;;;;5003541;28;749671;-86
2021/01/03 01:31:33;;;;;;;7.00;5.87;;;6.50;89.50;;;;;;5029398;28;20188;-86
2021/01/03 01:33:59;;;;;;;8.63;5.60;;;6.50;89.40;;;;;;5026805;28;20212;-86
2021/01/03 01:36:25;;;;;;;7.33;5.27;;;6.50;89.50;;;;;;5008681;28;20412;-86
2021/01/03 01:38:50;;;;;;;7.60;5.93;;;6.50;89.10;;;;;;5009443;28;20181;-85
2021/01/03 01:41:16;;;;;;;11.87;6.37;;;6.50;89.60;;;;;;5009269;28;20183;-85
2021/01/03 01:43:42;;;;;;;9.27;5.47;;;6.50;89.70;;;;;;5010537;28;20185;-85
2021/01/03 01:46:19;;;;;;;7.60;5.50;;;6.60;89.80;;;;;;5009114;28;20212;-85
2021/01/03 01:48:46;;;;;;;10.90;6.20;;;6.60;89.90;;;;;;5010929;28;20169;-85
2021/01/03 01:51:36;;;;;;;7.27;6.10;;;6.60;89.60;;;;;;5008661;28;20188;-85
2021/01/03 01:54:07;;;;;;;7.90;5.90;;;6.60;89.40;;;;;;5011860;28;21046;-85
2021/01/03 01:56:59;;;;;;;11.30;5.80;;;6.60;89.70;;;;;;5010083;28;20219;-85
2021/01/03 02:00:04;;;;;;;8.90;5.70;;;6.60;89.90;;;;;;5022967;28;20181;-85
2021/01/03 02:02:42;;;;;;;9.47;6.80;;;6.60;89.60;;;;;;4966375;28;20196;-87
2021/01/03 02:05:14;;;;;;;5.97;5.33;;;6.60;90.00;;;;;;4967974;28;20587;-85
2021/01/03 02:08:00;;;;;;;11.00;6.40;;;6.60;90.10;;;;;;4970542;28;20655;-85
2021/01/03 02:10:47;;;;;;;12.43;5.87;;;6.60;90.00;;;;;;4949422;29;20348;-84
2021/01/03 02:13:16;;;;;;;6.77;5.23;;;6.70;89.80;;;;;;4948930;29;20231;-86
2021/01/03 02:15:42;;;;;;;7.40;5.77;;;6.70;89.90;;;;;;4949001;29;20258;-85
2021/01/03 02:18:11;;;;;;;7.77;5.27;;;6.70;89.70;;;;;;4948626;29;20205;-85
2021/01/03 02:21:00;;;;;;;7.80;6.03;;;6.70;89.90;;;;;;4948652;29;20199;-85
2021/01/03 02:23:35;;;;;;;7.87;5.87;;;6.70;89.60;;;;;;4949927;29;20163;-85
2021/01/03 02:26:02;;;;;;;7.70;5.10;;;6.70;89.80;;;;;;4949179;29;20868;-85
2021/01/03 02:28:32;;;;;;;8.83;5.90;;;6.70;90.00;;;;;;4948121;29;20183;-86
2021/01/03 02:31:00;;;;;;;6.00;5.00;;;6.70;90.00;;;;;;4949144;28;20171;-86
2021/01/03 02:33:34;;;;;;;8.60;5.57;;;6.70;90.20;;;;;;4987718;28;20189;-86
2021/01/03 02:36:10;;;;;;;7.97;5.60;;;6.70;90.20;;;;;;4987292;28;20189;-87
2021/01/03 02:38:41;;;;;;;7.83;4.20;;;6.70;90.20;;;;;;4994003;28;20196;-86
2021/01/03 02:41:07;;;;;;;5.27;4.40;;;6.70;90.30;;;;;;5026656;28;20179;-86
2021/01/03 02:43:33;;;;;;;7.43;4.60;;;6.70;90.30;;;;;;5041936;28;20192;-86
2021/01/03 02:45:59;;;;;;;6.10;4.90;;;6.70;90.30;;;;;;5024130;28;20262;-86
2021/01/03 02:48:25;;;;;;;6.20;4.43;;;6.70;90.20;;;;;;5040901;28;20228;-86
2021/01/03 02:50:51;;;;;;;7.53;5.17;;;6.80;90.00;;;;;;5037111;28;20246;-86
2021/01/03 02:53:19;;;;;;;4.47;4.10;;;6.80;89.70;;;;;;5027169;28;20184;-87
2021/01/03 02:55:46;;;;;;;6.10;4.77;;;6.80;90.00;;;;;;5043043;28;20242;-86
2021/01/03 02:58:12;;;;;;;6.70;4.50;;;6.80;90.00;;;;;;5043924;28;20178;-86
2021/01/03 03:00:38;;;;;;;4.70;4.30;;;6.80;89.90;;;;;;5044039;28;20211;-86
2021/01/03 03:03:05;;;;;;;4.90;4.50;;;6.80;89.70;;;;;;5028411;28;20180;-86
2021/01/03 03:05:31;;;;;;;5.07;4.30;;;6.90;89.70;;;;;;5044921;28;20184;-86
2021/01/03 03:07:57;;;;;;;6.97;5.40;;;7.00;89.40;;;;;;5045166;28;20239;-87
2021/01/03 03:10:23;;;;;;;9.30;4.93;;;7.00;89.00;;;;;;5028914;28;20194;-86
2021/01/03 03:12:54;;;;;;;6.17;5.37;;;7.10;88.70;;;;;;5046363;28;20183;-87
2021/01/03 03:15:22;;;;;;;9.53;5.90;;;7.10;88.40;;;;;;5029573;28;20165;-86
2021/01/03 03:17:48;;;;;;;8.17;5.67;;;7.10;88.30;;;;;;5029118;28;20180;-86
2021/01/03 03:20:15;;;;;;;5.90;5.17;;;7.10;88.30;;;;;;5044872;28;20204;-86
2021/01/03 03:22:41;;;;;;;6.50;5.10;;;7.10;88.40;;;;;;5029423;28;20203;-85
2021/01/03 03:25:07;;;;;;;7.77;5.37;;;7.10;88.60;;;;;;5014085;28;20213;-86
2021/01/03 03:27:33;;;;;;;6.93;5.40;;;7.10;88.60;;;;;;5014872;28;20276;-86
2021/01/03 03:29:59;;;;;;;7.70;4.53;;;7.20;89.00;;;;;;5013322;28;20228;-84
2021/01/03 03:32:25;;;;;;;5.57;4.80;;;7.10;89.90;;;;;;5011397;28;20267;-85
2021/01/03 03:34:50;;;;;;;5.90;4.13;;;7.10;89.80;;;;;;5009381;28;20320;-84
2021/01/03 03:37:16;;;;;;;4.87;4.20;;;7.10;90.60;;;;;;5008319;28;20181;-84
2021/01/03 03:39:42;;;;;;;5.93;3.67;;;7.10;90.20;;;;;;5006870;28;20189;-85
2021/01/03 03:42:08;;;;;;;6.20;3.20;;;7.10;90.70;;;;;;5023738;28;20181;-85
2021/01/03 03:44:33;;;;;;;5.70;3.90;;;7.10;90.50;;;;;;5007902;28;20185;-82
2021/01/03 03:47:02;;;;;;;4.87;3.20;;;7.10;90.60;;;;;;5009077;28;20216;-83
2021/01/03 03:49:29;;;;;;;4.63;3.37;;;7.20;90.80;;;;;;5007640;28;20181;-84
2021/01/03 03:51:56;;;;;;;3.67;3.37;;;7.20;90.80;;;;;;5007959;28;20243;-83
2021/01/03 03:54:22;;;;;;;4.33;3.53;;;7.20;91.20;;;;;;5007449;28;20680;-83
2021/01/03 03:56:52;;;;;;;6.33;2.93;;;7.20;91.30;;;;;;5008607;28;20181;-83
2021/01/03 03:59:19;;;;;;;8.27;2.80;;;7.20;91.10;;;;;;5007361;28;20177;-84
2021/01/03 04:01:44;;;;;;;5.70;4.00;;;7.20;91.10;;;;;;5016060;28;20246;-84
2021/01/03 04:04:11;;;;;;;3.63;3.33;;;7.20;91.50;;;;;;5047706;28;20830;-84
2021/01/03 04:06:36;;;;;;;3.33;3.07;;;7.30;91.30;;;;;;5047246;28;20287;-84
2021/01/03 04:09:04;;;;;;;4.53;3.63;;;7.30;91.60;;;;;;5037595;28;20193;-84
2021/01/03 04:11:30;;;;;;;3.87;3.13;;;7.20;91.50;;;;;;5010998;28;20218;-84
2021/01/03 04:13:56;;;;;;;3.83;3.00;;;7.30;91.50;;;;;;5011550;28;20556;-84
2021/01/03 04:16:21;;;;;;;3.97;3.63;;;7.30;91.90;;;;;;5011087;28;20184;-84
2021/01/03 04:18:47;;;;;;;3.80;3.33;;;7.30;91.70;;;;;;5011427;28;20181;-84
2021/01/03 04:21:13;;;;;;;4.50;3.43;;;7.20;91.80;;;;;;5027403;28;21079;-84
2021/01/03 04:23:41;;;;;;;4.03;2.93;;;7.20;91.80;;;;;;5011978;28;20260;-84
2021/01/03 04:26:07;;;;;;;3.27;2.97;;;7.20;92.40;;;;;;5010259;28;21117;-84
2021/01/03 04:28:33;;;;;;;4.57;2.67;;;7.20;92.30;;;;;;5026706;28;20573;-85
2021/01/03 04:30:58;;;;;;;3.97;2.97;;;7.20;92.50;;;;;;5011686;28;20165;-84
2021/01/03 04:33:24;;;;;;;3.27;2.97;;;7.20;92.80;;;;;;5010183;28;20185;-84
2021/01/03 04:35:51;;;;;;;2.80;2.60;;;7.10;92.90;;;;;;5012877;28;20173;-83
2021/01/03 04:38:17;;;;;;;3.57;2.30;;;7.10;93.10;;;;;;5014385;28;20826;-84
2021/01/03 04:40:46;;;;;;;3.13;2.83;;;7.10;93.10;;;;;;5013673;28;20173;-83
2021/01/03 04:43:18;;;;;;;4.30;3.43;;;7.10;93.20;;;;;;5014279;28;20173;-84
2021/01/03 04:45:45;;;;;;;5.47;4.00;;;7.10;93.20;;;;;;5012549;28;20169;-83
2021/01/03 04:48:23;;;;;;;6.53;5.10;;;7.10;92.70;;;;;;5011545;28;20165;-83
2021/01/03 04:51:07;;;;;;;6.13;5.60;;;7.00;92.30;;;;;;5014310;28;20169;-84
2021/01/03 04:53:48;;;;;;;7.33;4.63;;;7.00;92.60;;;;;;5018901;28;20643;-84
2021/01/03 04:56:17;;;;;;;5.43;4.57;;;7.00;92.30;;;;;;5023091;28;20176;-83
2021/01/03 04:59:01;;;;;;;5.33;4.27;;;7.00;92.20;;;;;;5029675;28;20180;-84
2021/01/03 05:01:58;;;;;;;4.90;4.37;;;7.00;92.00;;;;;;5029082;28;20177;-83
2021/01/03 05:04:43;;;;;;;7.10;4.33;;;7.10;92.00;;;;;;5028044;28;20172;-83
2021/01/03 05:07:13;;;;;;;5.73;4.50;;;7.10;92.50;;;;;;5045153;28;20204;-85
2021/01/03 05:09:39;;;;;;;4.13;3.83;;;7.10;92.50;;;;;;5026995;28;20169;-84
2021/01/03 05:12:05;;;;;;;17.30;4.43;;;7.20;92.90;;;;;;5024792;28;20184;-83
2021/01/03 05:14:42;;;;;;;16.37;5.83;;;7.10;92.90;;;;;;5026234;28;20184;-83
2021/01/03 05:17:08;;;;;;;8.33;5.70;;;7.10;93.30;;;;;;4993014;28;20185;-83
2021/01/03 05:19:34;;;;;;;10.17;6.97;;;7.00;93.50;;;;;;5009528;28;20223;-84
2021/01/03 05:21:59;;;;;;;10.93;7.17;;;7.00;93.70;;;;;;5009737;28;20184;-82
2021/01/03 05:24:28;;;;;;;7.17;6.13;;;7.00;93.70;;;;;;5009832;28;20184;-83
2021/01/03 05:26:55;;;;;;;8.67;6.63;;;7.00;93.50;;;;;;5009750;28;20205;-83
2021/01/03 05:29:25;;;;;;;13.73;8.23;;;7.00;93.10;;;;;;5024632;28;20195;-82
2021/01/03 05:32:05;;;;;;;12.60;6.80;;;7.00;92.80;;;;;;5045079;28;20637;-82
2021/01/03 05:34:36;;;;;;;13.97;7.77;;;6.90;92.60;;;;;;5034664;28;20184;-82
2021/01/03 05:37:15;;;;;;;10.37;7.40;;;6.90;92.50;;;;;;5011030;28;20162;-83
2021/01/03 05:39:42;;;;;;;9.93;7.13;;;6.90;92.50;;;;;;5009707;28;20188;-83
2021/01/03 05:42:20;;;;;;;11.70;7.27;;;6.90;92.70;;;;;;5009116;28;20180;-83
2021/01/03 05:45:00;;;;;;;11.20;6.47;;;6.90;92.30;;;;;;5010816;28;20762;-83
2021/01/03 05:47:32;;;;;;;8.43;6.23;;;6.90;92.20;;;;;;5010306;28;20239;-82
2021/01/03 05:50:17;;;;;;;11.87;7.57;;;6.80;92.00;;;;;;5009210;28;20172;-82
2021/01/03 05:53:06;;;;;;;12.47;7.70;;;6.70;92.20;;;;;;5025252;28;20264;-83
2021/01/03 05:55:35;;;;;;;11.13;7.23;;;6.70;92.20;;;;;;5010304;28;20189;-83
2021/01/03 05:58:12;;;;;;;14.03;8.43;;;6.70;92.50;;;;;;5017685;28;20180;-83
2021/01/03 06:00:40;;;;;;;14.60;8.33;;;6.70;92.50;;;;;;5027657;28;20168;-84
2021/01/03 06:03:30;;;;;;;19.33;8.73;;;6.60;92.90;;;;;;5044727;28;20242;-84
2021/01/03 06:06:11;;;;;;;11.77;8.33;;;6.50;92.50;;;;;;5044501;28;20180;-84
2021/01/03 06:08:39;;;;;;;16.40;8.97;;;6.60;92.60;;;;;;5010407;28;20944;-83
2021/01/03 06:11:17;;;;;;;11.13;8.13;;;6.60;92.80;;;;;;5008518;28;20200;-82
2021/01/03 06:14:01;;;;;;;11.17;7.67;;;6.60;92.60;;;;;;5009940;28;20260;-81
2021/01/03 06:16:29;;;;;;;12.27;7.93;;;6.60;92.60;;;;;;5009433;28;20184;-82
2021/01/03 06:19:15;;;;;;;12.53;8.03;;;6.60;92.80;;;;;;5008730;28;20192;-82
2021/01/03 06:21:41;;;;;;;12.33;7.67;;;6.60;92.60;;;;;;5007519;28;20188;-82
2021/01/03 06:24:13;;;;;;;13.70;7.93;;;6.60;92.90;;;;;;5006236;28;20642;-82
2021/01/03 06:26:52;;;;;;;11.03;7.07;;;6.70;92.50;;;;;;5007849;28;20656;-82
2021/01/03 06:29:24;;;;;;;8.73;7.47;;;6.70;92.50;;;;;;5010185;28;20183;-82
2021/01/03 06:32:17;;;;;;;9.93;6.47;;;6.70;92.60;;;;;;5024368;28;20205;-81
2021/01/03 06:34:52;;;;;;;10.97;7.33;;;6.70;92.70;;;;;;4999100;28;20195;-83
2021/01/03 06:37:28;;;;;;;9.87;7.73;;;6.70;92.80;;;;;;4988607;28;20685;-78
2021/01/03 06:40:06;;;;;;;11.20;7.87;;;6.70;92.90;;;;;;5001410;28;20601;-79
2021/01/03 06:42:44;;;;;;;11.67;7.47;;;6.70;93.00;;;;;;4998080;28;20177;-79
2021/01/03 06:45:25;;;;;;;10.47;7.80;;;6.70;93.30;;;;;;5016638;28;20173;-79
2021/01/03 06:48:24;;;;;;;10.93;9.20;;;6.70;93.10;;;;;;5015421;28;20315;-78
2021/01/03 06:51:18;;;;;;;13.33;8.23;;;6.70;93.00;;;;;;5023794;28;20191;-79
2021/01/03 06:54:05;;;;;;;14.90;8.57;;;6.70;93.10;;;;;;5018400;28;20181;-80
2021/01/03 06:57:02;;;;;;;11.93;8.37;;;6.70;93.30;;;;;;5024155;28;20173;-79
2021/01/03 07:00:08;;;;;;;14.63;7.97;;;6.70;93.00;;;;;;5009148;28;20211;-79
2021/01/03 07:02:39;;;;;;;12.90;7.83;;;6.70;93.10;;;;;;4967237;28;20197;-79
2021/01/03 07:05:09;;;;;;;17.27;8.77;;;6.80;93.20;;;;;;4966833;28;20284;-80
2021/01/03 07:07:37;;;;;;;11.97;8.47;;;6.80;93.20;;;;;;4966611;28;20206;-82
2021/01/03 07:10:19;;;;;;;14.83;8.50;;;6.70;93.40;;;;;;4967133;28;20189;-85
2021/01/03 07:12:47;;;;;;;14.03;8.80;;;6.70;93.30;;;;;;4967915;28;20237;-88
2021/01/03 07:15:22;;;;;;;18.53;9.60;;;6.70;93.60;;;;;;4967566;28;20269;-86
2021/01/03 07:17:57;;;;;;;13.73;8.60;;;6.60;93.90;;;;;;4958672;28;20229;-86
2021/01/03 07:20:50;;;;;;;14.90;9.17;;;6.50;93.70;;;;;;4970525;28;20720;-87
2021/01/03 07:23:37;;;;;;;13.13;8.80;;;6.40;94.20;;;;;;4987290;28;20268;-86
2021/01/03 07:26:26;;;;;;;14.63;9.83;;;6.30;94.60;;;;;;4966936;28;20198;-76
2021/01/03 07:29:07;;;;;;;15.60;8.83;;;6.30;95.20;;;;;;4966025;28;20206;-77
2021/01/03 07:31:41;;;;;;;16.40;8.77;;;6.30;96.00;;;;;;4961648;28;20217;-74
2021/01/03 07:34:26;;;;;;;16.30;8.20;;;6.40;95.60;;;;;;4946009;28;20182;-75
2021/01/03 07:37:10;;;;;;;13.13;8.00;;;6.50;95.60;;;;;;4966432;28;20186;-75
2021/01/03 07:40:11;;;;;;;13.47;8.17;;;6.50;95.10;;;;;;5005125;28;20196;-74
2021/01/03 07:42:57;;;;;;;15.43;9.47;;;6.60;94.80;;;;;;5007104;28;20677;-74
2021/01/03 07:45:35;;;;;;;14.00;8.43;;;6.70;94.60;;;;;;5008891;28;20201;-75
2021/01/03 07:48:01;;;;;;;15.50;8.60;;;6.80;94.50;;;;;;4997886;28;20196;-75
2021/01/03 07:50:29;;;;;;;12.77;8.43;;;6.90;94.80;;;;;;5008303;28;20208;-76
2021/01/03 07:52:55;;;;;;;13.83;8.13;;;7.00;94.70;;;;;;5006953;28;20838;-75
2021/01/03 07:55:34;;;;;;;11.33;6.93;;;7.10;94.70;;;;;;5008108;28;20195;-75
2021/01/03 07:58:04;;;;;;;6.73;6.10;;;7.20;95.10;;;;;;5008406;28;20177;-75
2021/01/03 08:00:33;;;;;;;8.07;5.87;;;7.30;95.90;;;;;;5010180;28;20185;-76
2021/01/03 08:03:03;;;;;;;7.60;5.80;;;7.40;95.20;;;;;;5015441;28;20193;-76
2021/01/03 08:05:30;;;;;;;8.67;6.40;;;7.50;95.20;;;;;;5007311;28;20197;-75
2021/01/03 08:08:23;;;;;;;6.90;4.90;;;7.70;95.40;;;;;;5009290;28;20241;-75
2021/01/03 08:11:02;;;;;;;5.13;4.73;;;7.80;94.80;;;;;;5004267;28;20201;-76
2021/01/03 08:13:32;;;;;;;4.23;3.77;;;7.90;95.00;;;;;;5007789;28;20185;-76
2021/01/03 08:16:00;;;;;;;4.53;4.00;;;8.00;94.50;;;;;;5023010;28;20851;-76
2021/01/03 08:18:28;;;;;;;5.97;4.10;;;8.20;94.60;;;;;;5023431;28;20204;-76
2021/01/03 08:21:04;;;;;;;4.50;3.90;;;8.30;94.10;;;;;;5018931;28;20181;-77
2021/01/03 08:23:34;;;;;;;4.13;3.77;;;8.40;94.00;;;;;;5001568;28;20719;-76
2021/01/03 08:26:06;;;;;;;6.07;3.20;;;8.40;94.00;;;;;;5007813;28;20729;-76
2021/01/03 08:28:37;;;;;;;5.83;3.67;;;8.40;93.20;;;;;;5006264;28;20195;-76
2021/01/03 08:31:05;;;;;;;3.93;3.10;;;8.30;92.90;;;;;;5006953;28;20684;-76
2021/01/03 08:33:33;;;;;;;3.40;3.10;;;8.30;92.50;;;;;;5011663;28;20193;-77
2021/01/03 08:36:14;;;;;;;4.60;3.50;;;8.30;92.70;;;;;;4995450;28;20207;-77
2021/01/03 08:38:40;;;;;;;5.00;3.57;;;8.30;93.10;;;;;;5003410;28;20226;-77
2021/01/03 08:41:11;;;;;;;3.73;3.23;;;8.30;92.70;;;;;;5019006;28;20724;-77
2021/01/03 08:43:37;;;;;;;4.23;3.40;;;8.30;93.20;;;;;;5012988;28;20239;-78
2021/01/03 08:46:07;;;;;;;4.07;3.60;;;8.30;92.80;;;;;;5002716;28;20189;-75
2021/01/03 08:48:34;;;;;;;4.20;3.87;;;8.40;92.60;;;;;;4992278;28;20213;-76
2021/01/03 08:51:06;;;;;;;3.60;3.30;;;8.40;92.30;;;;;;5011798;28;20181;-78
2021/01/03 08:53:32;;;;;;;4.70;3.47;;;8.50;92.10;;;;;;5019808;28;20291;-76
2021/01/03 08:56:14;;;;;;;6.30;4.43;;;8.60;92.30;;;;;;4998595;28;20990;-76
2021/01/03 08:58:40;;;;;;;7.90;5.20;;;8.70;92.50;;;;;;4995179;28;20917;-73
2021/01/03 09:01:33;;;;;;;6.43;5.83;;;8.80;92.60;;;;;;5007012;28;20185;-76
2021/01/03 09:04:05;;;;;;;5.57;4.50;;;8.90;92.30;;;;;;5002703;28;20207;-75
2021/01/03 09:06:32;;;;;;;5.57;5.03;;;8.90;92.10;;;;;;5002114;28;20229;-75
2021/01/03 09:09:08;;;;;;;4.40;3.97;;;8.90;92.00;;;;;;5004046;28;20188;-74
2021/01/03 09:11:36;;;;;;;5.47;4.97;;;8.90;91.70;;;;;;5006486;28;20217;-76
2021/01/03 09:14:26;;;;;;;5.57;5.00;;;9.00;91.70;;;;;;5002126;28;20215;-76
2021/01/03 09:17:03;;;;;;;7.57;5.43;;;9.00;91.70;;;;;;4989778;28;20197;-75
2021/01/03 09:19:36;;;;;;;6.60;4.80;;;9.00;91.90;;;;;;5027539;28;20188;-76
2021/01/03 09:22:03;;;;;;;10.00;5.33;;;9.00;92.00;;;;;;5023255;28;20184;-75
2021/01/03 09:24:34;;;;;;;7.67;5.53;;;9.00;92.00;;;;;;5004724;28;20281;-75
2021/01/03 09:27:04;;;;;;;5.73;5.13;;;9.00;91.90;;;;;;5001565;28;20204;-76
2021/01/03 09:29:34;;;;;;;6.57;4.97;;;9.00;92.00;;;;;;5003687;28;20594;-75
2021/01/03 09:32:11;;;;;;;7.33;5.77;;;9.10;92.00;;;;;;4994675;28;20967;-76
2021/01/03 09:34:51;;;;;;;5.43;4.90;;;9.10;91.80;;;;;;5001784;28;20276;-75
2021/01/03 09:37:25;;;;;;;7.03;4.93;;;9.20;91.50;;;;;;4989634;28;20716;-77
2021/01/03 09:39:59;;;;;;;6.83;5.27;;;9.30;92.00;;;;;;4987174;28;20892;-77
2021/01/03 09:42:48;;;;;;;7.63;5.53;;;9.30;91.70;;;;;;5008574;28;20754;-78
2021/01/03 09:46:08;;;;;;;6.20;5.33;;;9.40;91.00;;;;;;5028630;28;20172;-77
2021/01/03 09:48:37;;;;;;;10.10;5.10;;;9.40;90.90;;;;;;4961507;28;20197;-78
2021/01/03 09:51:09;;;;;;;5.90;4.67;;;9.50;91.10;;;;;;4947443;28;20762;-80
2021/01/03 09:53:39;;;;;;;5.67;4.93;;;9.60;90.80;;;;;;4928591;29;20175;-76
2021/01/03 09:56:15;;;;;;;6.30;4.63;;;9.60;90.60;;;;;;4930710;28;20183;-77
2021/01/03 09:58:43;;;;;;;5.70;4.30;;;9.70;90.20;;;;;;4938112;28;20285;-74
2021/01/03 10:01:23;;;;;;;5.53;4.65;;;9.60;89.90;;;;;;4946368;28;20211;-77
2021/01/03 10:03:49;;;;;;;6.87;4.90;;;9.60;89.90;;;;;;4945856;29;20226;-77
2021/01/03 10:06:31;;;;;;;8.97;5.77;;;9.60;90.40;;;;;;4949372;28;20230;-77
2021/01/03 10:09:08;;;;;;;6.87;5.17;;;9.70;90.30;;;;;;4946187;28;20810;-76
2021/01/03 10:11:34;;;;;;;6.23;4.63;;;9.80;90.20;;;;;;4930488;28;20182;-79
2021/01/03 10:14:07;;;;;;;7.95;5.45;;;10.00;89.50;;;;;;4964006;28;20189;-77
2021/01/03 10:16:35;;;;;;;7.20;5.00;;;10.20;88.50;;;;;;4946582;28;20205;-78
2021/01/03 10:19:12;;;;;;;4.50;4.05;;;10.40;88.60;;;;;;4956378;28;20198;-79
2021/01/03 10:21:40;;;;;;;4.78;4.30;;;10.80;88.00;;;;;;4958174;28;20190;-79
2021/01/03 10:24:23;;;;;;;5.93;4.47;;;11.20;87.30;;;;;;5007176;28;20181;-80
2021/01/03 10:27:07;;;;;;;5.88;4.75;;;11.80;86.70;;;;;;5014300;28;20192;-79
2021/01/03 10:29:32;;;;;;;5.97;4.47;;;12.60;83.90;;;;;;5018135;28;20587;-80
2021/01/03 10:31:58;;;;;;;4.78;4.25;;;13.20;81.90;;;;;;5002744;28;20178;-79
2021/01/03 10:34:25;;;;;;;5.95;5.35;;;14.00;80.20;;;;;;4998645;28;20990;-79
2021/01/03 10:36:57;;;;;;;8.65;5.25;;;14.40;77.80;;;;;;5015759;28;20263;-79
2021/01/03 10:39:23;;;;;;;10.02;7.05;;;14.80;77.50;;;;;;4998359;28;20193;-73
2021/01/03 10:41:49;;;;;;;6.55;5.30;;;15.20;76.60;;;;;;5012423;28;20578;-75
2021/01/03 10:44:16;;;;;;;7.18;4.97;;;15.20;76.10;;;;;;4992747;28;20200;-75
2021/01/03 10:46:42;;;;;;;5.95;5.00;;;15.40;74.40;;;;;;4999994;28;20258;-76
2021/01/03 10:49:09;;;;;;;6.97;4.95;;;15.40;75.10;;;;;;4996261;28;20185;-76
2021/01/03 10:51:36;;;;;;;4.93;4.45;;;15.50;74.70;;;;;;4996050;28;20186;-75
2021/01/03 10:54:08;;;;;;;5.38;4.45;;;15.50;73.90;;;;;;5000251;28;20189;-73
2021/01/03 10:56:35;;;;;;;4.63;4.22;;;15.50;73.50;;;;;;5006134;28;20582;-81
2021/01/03 10:59:01;;;;;;;5.15;4.63;;;16.00;72.50;;;;;;5010318;28;20631;-80
2021/01/03 11:01:27;;;;;;;9.50;5.55;;;16.60;72.30;;;;;;5008458;28;20192;-80
2021/01/03 11:03:53;;;;;;;7.10;4.53;;;17.30;70.10;;;;;;5005090;28;20661;-75
2021/01/03 11:06:19;;;;;;;5.28;4.55;;;18.20;70.20;;;;;;5003042;28;20544;-75
2021/01/03 11:08:45;;;;;;;5.47;4.93;;;19.00;68.80;;;;;;4997461;28;20192;-77
2021/01/03 11:11:17;;;;;;;6.00;5.40;;;19.70;67.00;;;;;;4998385;28;20553;-82
2021/01/03 11:13:42;;;;;;;5.93;5.45;;;19.90;65.50;;;;;;5007340;28;20189;-78
2021/01/03 11:16:08;;;;;;;6.60;5.97;;;19.90;65.10;;;;;;5010742;28;20181;-77
2021/01/03 11:18:34;;;;;;;7.97;6.85;;;19.90;63.50;;;;;;5011592;28;20558;-77
2021/01/03 11:21:00;;;;;;;6.82;6.13;;;19.40;64.30;;;;;;5017374;28;20173;-75
2021/01/03 11:23:26;;;;;;;6.35;5.75;;;19.30;64.50;;;;;;5014822;28;20200;-78
2021/01/03 11:25:51;;;;;;;6.95;5.88;;;19.20;66.90;;;;;;5007142;28;20189;-78
2021/01/03 11:28:17;;;;;;;11.32;6.63;;;19.10;66.30;;;;;;5012786;28;20208;-78
2021/01/03 11:30:43;;;;;;;6.78;5.97;;;18.90;67.00;;;;;;4996338;28;20198;-78
2021/01/03 11:33:09;;;;;;;7.25;6.43;;;18.50;66.10;;;;;;5020528;28;20278;-76
2021/01/03 11:35:35;;;;;;;8.27;6.45;;;18.00;66.50;;;;;;5005459;28;20328;-77
2021/01/03 11:38:00;;;;;;;10.98;7.38;;;17.50;68.70;;;;;;5005498;28;20233;-77
2021/01/03 11:40:26;;;;;;;7.30;6.60;;;17.20;69.30;;;;;;5001306;28;20213;-76
2021/01/03 11:42:52;;;;;;;8.15;6.40;;;17.00;69.20;;;;;;5003872;28;20197;-76
2021/01/03 11:45:21;;;;;;;7.40;5.63;;;16.80;70.20;;;;;;4997200;28;20189;-77
2021/01/03 11:47:47;;;;;;;7.38;5.78;;;16.70;70.30;;;;;;5009299;28;20303;-78
2021/01/03 11:50:19;;;;;;;7.72;5.68;;;16.50;71.00;;;;;;5024958;28;20172;-77
2021/01/03 11:52:46;;;;;;;6.03;5.30;;;16.40;70.90;;;;;;5019242;28;20313;-78
2021/01/03 11:55:14;;;;;;;5.97;4.70;;;16.40;71.40;;;;;;5000888;28;20661;-77
2021/01/03 11:57:40;;;;;;;5.93;5.40;;;16.40;71.20;;;;;;5008482;28;20188;-78
2021/01/03 12:00:08;;;;;;;6.82;5.28;;;16.50;71.30;;;;;;5001398;28;20196;-77
2021/01/03 12:02:33;;;;;;;5.28;4.78;;;16.40;70.50;;;;;;4988669;28;20264;-76
2021/01/03 12:04:59;;;;;;;6.15;5.13;;;16.40;70.80;;;;;;4990959;28;20273;-76
2021/01/03 12:07:25;;;;;;;5.60;5.03;;;16.40;70.60;;;;;;5002316;28;20976;-77
2021/01/03 12:09:50;;;;;;;5.57;5.05;;;16.60;70.90;;;;;;5008978;28;20169;-77
2021/01/03 12:12:20;;;;;;;5.65;5.05;;;16.90;70.00;;;;;;5018503;28;20188;-77
2021/01/03 12:14:46;;;;;;;6.55;5.15;;;17.10;70.20;;;;;;5002376;28;20377;-77
2021/01/03 12:17:16;;;;;;;5.25;4.75;;;17.20;67.80;;;;;;4994730;28;20192;-76
2021/01/03 12:19:43;;;;;;;5.32;4.55;;;17.50;68.50;;;;;;5006755;28;20193;-78
2021/01/03 12:22:09;;;;;;;4.50;4.03;;;17.90;68.40;;;;;;5000800;28;20185;-75
2021/01/03 12:24:34;;;;;;;5.40;4.70;;;18.40;68.20;;;;;;5011601;28;20196;-78
2021/01/03 12:27:02;;;;;;;9.65;5.93;;;18.90;66.80;;;;;;5029139;28;20295;-77
2021/01/03 12:29:28;;;;;;;5.07;4.63;;;19.50;65.10;;;;;;5014314;28;20199;-77
2021/01/03 12:31:56;;;;;;;5.47;4.97;;;19.80;64.10;;;;;;5025903;28;20177;-77
2021/01/03 12:34:25;;;;;;;6.13;5.40;;;20.00;64.80;;;;;;5032103;28;20181;-82
2021/01/03 12:36:51;;;;;;;5.85;5.22;;;20.10;63.00;;;;;;5026345;28;20189;-83
2021/01/03 12:39:18;;;;;;;7.65;6.20;;;20.40;63.40;;;;;;5010445;28;21068;-81
2021/01/03 12:41:45;;;;;;;5.78;5.28;;;20.70;63.60;;;;;;5008098;28;20169;-82
2021/01/03 12:44:11;;;;;;;6.10;5.35;;;20.90;62.50;;;;;;4999460;28;20196;-81
2021/01/03 12:46:39;;;;;;;7.85;5.47;;;21.10;63.20;;;;;;4992241;28;20209;-82
2021/01/03 12:49:07;;;;;;;7.82;6.03;;;21.20;61.50;;;;;;4991970;28;20276;-83
2021/01/03 12:51:33;;;;;;;6.35;5.55;;;21.30;62.20;;;;;;5008548;28;20231;-82
2021/01/03 12:53:59;;;;;;;5.85;5.28;;;21.30;61.20;;;;;;5010918;28;20185;-82
2021/01/03 12:56:26;;;;;;;6.38;5.78;;;21.30;61.00;;;;;;5009425;28;20810;-76
2021/01/03 12:58:53;;;;;;;7.40;6.35;;;21.20;62.00;;;;;;5011887;28;20200;-78
2021/01/03 13:01:24;;;;;;;8.43;5.90;;;21.20;61.90;;;;;;5024634;28;20195;-78
2021/01/03 13:03:50;;;;;;;6.80;5.53;;;21.30;62.70;;;;;;4990366;28;20275;-78
2021/01/03 13:06:16;;;;;;;6.07;5.45;;;21.30;61.20;;;;;;5004043;28;20227;-77
2021/01/03 13:08:42;;;;;;;6.50;5.95;;;21.20;61.70;;;;;;5016504;28;20253;-81
2021/01/03 13:11:07;;;;;;;7.28;5.03;;;21.00;60.70;;;;;;5021892;28;20300;-80
2021/01/03 13:13:34;;;;;;;5.32;4.82;;;21.00;62.00;;;;;;5010757;28;20193;-80